createdAt,value
2017-04-30T00:00:44.739Z,4.75
2017-04-30T00:01:45.312Z,4.59
2017-04-30T00:02:45.882Z,4.52
2017-04-30T00:03:46.454Z,4.49
2017-04-30T00:04:47.024Z,4.37
2017-04-30T00:05:47.597Z,4.58
2017-04-30T00:06:48.167Z,4.60
2017-04-30T00:07:48.738Z,4.50
2017-04-30T00:08:49.312Z,4.48
2017-04-30T00:09:49.899Z,4.45
2017-04-30T00:10:50.483Z,4.58
2017-04-30T00:11:51.053Z,4.38
2017-04-30T00:12:51.622Z,4.40
2017-04-30T00:13:52.190Z,4.48
2017-04-30T00:14:52.761Z,4.16
2017-04-30T00:15:53.334Z,4.13
2017-04-30T00:16:53.903Z,4.19
2017-04-30T00:17:54.473Z,4.14
2017-04-30T00:18:55.042Z,4.24
2017-04-30T00:19:55.626Z,4.12
2017-04-30T00:20:56.198Z,4.10
2017-04-30T00:21:56.769Z,4.13
2017-04-30T00:22:57.340Z,4.04
2017-04-30T00:23:57.910Z,4.13
2017-04-30T00:24:58.481Z,4.26
2017-04-30T00:25:59.050Z,4.26
2017-04-30T00:26:59.621Z,4.31
2017-04-30T00:28:00.194Z,4.35
2017-04-30T00:29:00.764Z,4.06
2017-04-30T00:30:01.338Z,4.04
2017-04-30T00:31:01.907Z,4.14
2017-04-30T00:32:02.481Z,4.14
2017-04-30T00:33:03.050Z,4.42
2017-04-30T00:34:03.621Z,4.32
2017-04-30T00:35:04.196Z,4.32
2017-04-30T00:36:04.762Z,4.13
2017-04-30T00:37:05.333Z,4.14
2017-04-30T00:38:05.918Z,4.20
2017-04-30T00:39:06.507Z,4.19
2017-04-30T00:40:07.075Z,4.14
2017-04-30T00:41:07.646Z,4.13
2017-04-30T00:42:08.218Z,4.14
2017-04-30T00:43:08.790Z,4.04
2017-04-30T00:44:09.359Z,4.01
2017-04-30T00:45:09.929Z,4.04
2017-04-30T00:46:10.499Z,3.99
2017-04-30T00:47:11.067Z,4.02
2017-04-30T00:48:11.650Z,4.20
2017-04-30T00:49:12.221Z,4.06
2017-04-30T00:50:12.791Z,3.98
2017-04-30T00:51:13.361Z,4.05
2017-04-30T00:52:13.930Z,3.96
2017-04-30T00:53:14.500Z,4.10
2017-04-30T00:54:15.071Z,3.95
2017-04-30T00:55:15.653Z,4.08
2017-04-30T00:56:16.226Z,4.08
2017-04-30T00:57:16.795Z,4.08
2017-04-30T00:58:17.366Z,4.20
2017-04-30T00:59:17.935Z,4.16
2017-04-30T01:00:18.506Z,4.02
2017-04-30T01:01:19.090Z,3.96
2017-04-30T01:02:19.660Z,3.98
2017-04-30T01:03:20.231Z,4.06
2017-04-30T01:04:20.802Z,4.05
2017-04-30T01:05:21.372Z,4.06
2017-04-30T01:06:21.941Z,3.98
2017-04-30T01:07:22.510Z,3.87
2017-04-30T01:08:23.081Z,3.83
2017-04-30T01:09:23.650Z,3.83
2017-04-30T01:10:24.234Z,3.80
2017-04-30T01:11:24.804Z,3.86
2017-04-30T01:12:25.375Z,3.74
2017-04-30T01:13:25.945Z,3.70
2017-04-30T01:14:26.530Z,3.80
2017-04-30T01:15:27.101Z,3.84
2017-04-30T01:16:27.670Z,3.92
2017-04-30T01:17:28.240Z,3.76
2017-04-30T01:18:28.809Z,3.78
2017-04-30T01:19:29.379Z,3.83
2017-04-30T01:20:29.949Z,3.68
2017-04-30T01:21:30.520Z,3.62
2017-04-30T01:22:31.089Z,3.66
2017-04-30T01:23:31.660Z,3.84
2017-04-30T01:24:32.243Z,3.66
2017-04-30T01:25:32.814Z,3.70
2017-04-30T01:26:33.382Z,3.63
2017-04-30T01:27:33.953Z,3.59
2017-04-30T01:28:34.521Z,3.63
2017-04-30T01:29:35.104Z,3.68
2017-04-30T01:30:35.675Z,3.66
2017-04-30T01:31:36.246Z,3.62
2017-04-30T01:32:36.816Z,3.56
2017-04-30T01:33:37.385Z,3.60
2017-04-30T01:34:37.955Z,3.76
2017-04-30T01:35:38.525Z,3.59
2017-04-30T01:36:39.096Z,3.48
2017-04-30T01:37:39.664Z,3.41
2017-04-30T01:38:40.235Z,3.47
2017-04-30T01:39:40.808Z,3.47
2017-04-30T01:40:41.377Z,3.44
2017-04-30T01:41:41.946Z,3.29
2017-04-30T01:42:42.528Z,3.32
2017-04-30T01:43:43.098Z,3.47
2017-04-30T01:44:43.669Z,3.45
2017-04-30T01:45:44.237Z,3.50
2017-04-30T01:46:44.808Z,3.58
2017-04-30T01:47:45.381Z,3.56
2017-04-30T01:48:45.954Z,3.42
2017-04-30T01:49:46.535Z,3.42
2017-04-30T01:50:47.108Z,3.48
2017-04-30T01:51:47.677Z,3.51
2017-04-30T01:52:48.249Z,3.51
2017-04-30T01:53:48.823Z,3.48
2017-04-30T01:54:49.391Z,3.36
2017-04-30T01:55:49.962Z,3.44
2017-04-30T01:56:50.536Z,3.34
2017-04-30T01:57:51.102Z,3.34
2017-04-30T01:58:51.671Z,3.36
2017-04-30T01:59:52.240Z,3.29
2017-04-30T02:00:52.810Z,3.11
2017-04-30T02:01:53.379Z,3.14
2017-04-30T02:02:53.948Z,3.23
2017-04-30T02:03:54.515Z,3.19
2017-04-30T02:04:55.085Z,3.16
2017-04-30T02:05:55.667Z,3.19
2017-04-30T02:06:56.234Z,3.11
2017-04-30T02:07:56.805Z,3.13
2017-04-30T02:08:57.386Z,3.11
2017-04-30T02:09:57.957Z,3.10
2017-04-30T02:10:58.532Z,3.19
2017-04-30T02:11:59.097Z,3.22
2017-04-30T02:12:59.667Z,3.18
2017-04-30T02:14:00.235Z,3.16
2017-04-30T02:15:00.817Z,3.14
2017-04-30T02:16:01.388Z,2.95
2017-04-30T02:17:01.957Z,3.01
2017-04-30T02:18:02.529Z,3.11
2017-04-30T02:19:03.098Z,2.97
2017-04-30T02:20:03.668Z,3.07
2017-04-30T02:21:04.236Z,3.11
2017-04-30T02:22:04.806Z,3.13
2017-04-30T02:23:05.374Z,3.05
2017-04-30T02:24:05.944Z,2.92
2017-04-30T02:25:06.513Z,2.98
2017-04-30T02:26:07.083Z,2.83
2017-04-30T02:27:07.665Z,2.83
2017-04-30T02:28:08.235Z,2.98
2017-04-30T02:29:08.804Z,3.00
2017-04-30T02:30:09.373Z,2.97
2017-04-30T02:31:09.944Z,2.95
2017-04-30T02:32:10.511Z,3.07
2017-04-30T02:33:11.082Z,3.01
2017-04-30T02:34:11.650Z,2.86
2017-04-30T02:35:12.232Z,2.97
2017-04-30T02:36:12.805Z,2.89
2017-04-30T02:37:13.373Z,2.97
2017-04-30T02:38:13.944Z,2.75
2017-04-30T02:39:14.512Z,2.75
2017-04-30T02:40:15.093Z,2.69
2017-04-30T02:41:15.662Z,2.69
2017-04-30T02:42:16.236Z,2.72
2017-04-30T02:43:16.802Z,2.77
2017-04-30T02:44:17.372Z,2.82
2017-04-30T02:45:17.941Z,2.68
2017-04-30T02:46:18.508Z,2.77
2017-04-30T02:47:19.080Z,2.82
2017-04-30T02:48:19.664Z,2.72
2017-04-30T02:49:20.232Z,2.75
2017-04-30T02:50:20.803Z,2.68
2017-04-30T02:51:21.384Z,2.68
2017-04-30T02:52:21.953Z,2.67
2017-04-30T02:53:22.523Z,2.56
2017-04-30T02:54:23.092Z,2.53
2017-04-30T02:55:23.663Z,2.60
2017-04-30T02:56:24.232Z,2.62
2017-04-30T02:57:24.802Z,2.57
2017-04-30T02:58:25.372Z,2.51
2017-04-30T02:59:25.941Z,2.54
2017-04-30T03:00:26.509Z,2.60
2017-04-30T03:01:27.078Z,2.65
2017-04-30T03:02:27.660Z,2.56
2017-04-30T03:03:28.231Z,2.54
2017-04-30T03:04:28.813Z,2.62
2017-04-30T03:05:29.384Z,2.60
2017-04-30T03:06:29.951Z,2.56
2017-04-30T03:07:30.519Z,2.60
2017-04-30T03:08:31.087Z,2.67
2017-04-30T03:09:31.658Z,2.68
2017-04-30T03:10:32.227Z,2.77
2017-04-30T03:11:32.798Z,2.68
2017-04-30T03:12:33.367Z,2.61
2017-04-30T03:13:33.937Z,2.62
2017-04-30T03:14:34.505Z,2.56
2017-04-30T03:15:35.075Z,2.51
2017-04-30T03:16:35.645Z,2.57
2017-04-30T03:17:36.214Z,2.43
2017-04-30T03:18:36.783Z,2.51
2017-04-30T03:19:37.357Z,2.47
2017-04-30T03:20:37.936Z,2.51
2017-04-30T03:21:38.505Z,2.44
2017-04-30T03:22:39.075Z,2.50
2017-04-30T03:23:39.642Z,2.22
2017-04-30T03:24:40.213Z,2.13
2017-04-30T03:25:40.783Z,2.24
2017-04-30T03:26:41.348Z,2.33
2017-04-30T03:27:41.916Z,2.24
2017-04-30T03:28:42.496Z,2.43
2017-04-30T03:29:43.067Z,2.39
2017-04-30T03:30:43.636Z,2.31
2017-04-30T03:31:44.207Z,2.06
2017-04-30T03:32:44.776Z,2.31
2017-04-30T03:33:45.346Z,2.38
2017-04-30T03:34:45.914Z,2.35
2017-04-30T03:35:46.482Z,2.36
2017-04-30T03:36:47.051Z,2.43
2017-04-30T03:37:47.633Z,2.54
2017-04-30T03:38:48.209Z,2.56
2017-04-30T03:39:48.773Z,2.57
2017-04-30T03:40:49.369Z,2.62
2017-04-30T03:41:49.909Z,2.43
2017-04-30T03:42:50.480Z,2.26
2017-04-30T03:43:51.048Z,2.17
2017-04-30T03:44:51.616Z,2.28
2017-04-30T03:45:52.184Z,2.32
2017-04-30T03:46:52.754Z,2.20
2017-04-30T03:47:53.322Z,2.24
2017-04-30T03:48:53.891Z,2.29
2017-04-30T03:49:54.462Z,2.24
2017-04-30T03:50:55.033Z,2.36
2017-04-30T03:51:55.613Z,2.44
2017-04-30T03:52:56.182Z,2.44
2017-04-30T03:53:56.750Z,2.28
2017-04-30T03:54:57.332Z,2.29
2017-04-30T03:55:57.902Z,2.31
2017-04-30T03:56:58.472Z,2.36
2017-04-30T03:57:59.042Z,2.31
2017-04-30T03:58:59.613Z,2.20
2017-04-30T04:00:00.183Z,2.13
2017-04-30T04:01:00.752Z,2.07
2017-04-30T04:02:01.322Z,2.24
2017-04-30T04:03:01.893Z,2.32
2017-04-30T04:04:02.465Z,2.43
2017-04-30T04:05:03.034Z,2.17
2017-04-30T04:06:03.617Z,2.29
2017-04-30T04:07:04.186Z,2.39
2017-04-30T04:08:04.758Z,2.33
2017-04-30T04:09:05.328Z,2.26
2017-04-30T04:10:05.897Z,2.32
2017-04-30T04:11:06.469Z,2.24
2017-04-30T04:12:07.037Z,2.36
2017-04-30T04:13:07.606Z,2.39
2017-04-30T04:14:08.174Z,2.26
2017-04-30T04:15:08.744Z,2.10
2017-04-30T04:16:09.313Z,2.10
2017-04-30T04:17:09.882Z,2.20
2017-04-30T04:18:10.454Z,2.08
2017-04-30T04:19:11.021Z,2.07
2017-04-30T04:20:11.593Z,2.13
2017-04-30T04:21:12.161Z,2.18
2017-04-30T04:22:12.732Z,2.22
2017-04-30T04:23:13.302Z,2.28
2017-04-30T04:24:13.873Z,2.20
2017-04-30T04:25:14.442Z,2.26
2017-04-30T04:26:15.011Z,2.43
2017-04-30T04:27:15.580Z,2.38
2017-04-30T04:28:16.162Z,2.36
2017-04-30T04:29:16.734Z,2.43
2017-04-30T04:30:17.304Z,2.32
2017-04-30T04:31:17.875Z,2.14
2017-04-30T04:32:18.445Z,2.42
2017-04-30T04:33:19.017Z,2.29
2017-04-30T04:34:19.587Z,2.53
2017-04-30T04:35:20.158Z,2.60
2017-04-30T04:36:20.730Z,2.39
2017-04-30T04:37:21.299Z,2.60
2017-04-30T04:38:21.869Z,2.32
2017-04-30T04:39:22.440Z,2.18
2017-04-30T04:40:23.009Z,2.36
2017-04-30T04:41:23.581Z,2.29
2017-04-30T04:42:24.153Z,2.32
2017-04-30T04:43:24.725Z,2.29
2017-04-30T04:44:25.294Z,2.54
2017-04-30T04:45:25.865Z,2.57
2017-04-30T04:46:26.436Z,2.60
2017-04-30T04:47:27.006Z,2.56
2017-04-30T04:48:27.580Z,2.79
2017-04-30T04:49:28.156Z,2.69
2017-04-30T04:50:28.722Z,2.90
2017-04-30T04:51:29.296Z,2.86
2017-04-30T04:52:29.862Z,2.75
2017-04-30T04:53:30.434Z,2.67
2017-04-30T04:54:31.007Z,2.85
2017-04-30T04:55:31.581Z,3.04
2017-04-30T04:56:32.152Z,3.18
2017-04-30T04:57:32.723Z,3.41
2017-04-30T04:58:33.296Z,3.32
2017-04-30T04:59:33.869Z,3.40
2017-04-30T05:00:34.443Z,3.42
2017-04-30T05:01:35.028Z,3.34
2017-04-30T05:02:35.600Z,3.22
2017-04-30T05:03:36.185Z,3.34
2017-04-30T05:04:36.756Z,3.48
2017-04-30T05:05:37.328Z,3.48
2017-04-30T05:06:37.915Z,3.55
2017-04-30T05:07:38.486Z,3.58
2017-04-30T05:08:39.057Z,3.80
2017-04-30T05:09:39.630Z,4.01
2017-04-30T05:10:40.205Z,3.87
2017-04-30T05:11:40.777Z,3.77
2017-04-30T05:12:41.361Z,3.81
2017-04-30T05:13:41.934Z,3.81
2017-04-30T05:14:42.505Z,3.95
2017-04-30T05:15:43.076Z,4.10
2017-04-30T05:16:43.654Z,4.14
2017-04-30T05:17:44.223Z,4.16
2017-04-30T05:18:44.808Z,4.23
2017-04-30T05:19:45.394Z,4.20
2017-04-30T05:20:45.965Z,4.31
2017-04-30T05:21:46.536Z,4.42
2017-04-30T05:22:47.109Z,4.30
2017-04-30T05:23:47.683Z,4.31
2017-04-30T05:24:48.252Z,4.45
2017-04-30T05:25:48.823Z,4.53
2017-04-30T05:26:49.395Z,4.55
2017-04-30T05:27:49.968Z,4.53
2017-04-30T05:28:50.540Z,4.66
2017-04-30T05:29:51.124Z,4.63
2017-04-30T05:30:51.698Z,4.74
2017-04-30T05:31:52.271Z,4.74
2017-04-30T05:32:52.845Z,4.80
2017-04-30T05:33:53.416Z,4.78
2017-04-30T05:34:53.989Z,4.84
2017-04-30T05:35:54.565Z,4.90
2017-04-30T05:36:55.136Z,4.97
2017-04-30T05:37:55.713Z,4.96
2017-04-30T05:38:56.280Z,5.07
2017-04-30T05:39:56.867Z,5.12
2017-04-30T05:40:57.437Z,5.20
2017-04-30T05:41:58.010Z,5.26
2017-04-30T05:42:58.596Z,5.36
2017-04-30T05:43:59.167Z,5.39
2017-04-30T05:44:59.742Z,5.41
2017-04-30T05:46:00.318Z,5.54
2017-04-30T05:47:00.902Z,5.53
2017-04-30T05:48:01.478Z,5.57
2017-04-30T05:49:02.047Z,5.59
2017-04-30T05:50:02.622Z,5.64
2017-04-30T05:51:03.209Z,5.64
2017-04-30T05:52:03.781Z,5.65
2017-04-30T05:53:04.359Z,5.80
2017-04-30T05:54:04.929Z,6.01
2017-04-30T05:55:05.502Z,5.93
2017-04-30T05:56:06.076Z,5.97
2017-04-30T05:57:06.649Z,6.01
2017-04-30T05:58:07.222Z,5.90
2017-04-30T05:59:07.797Z,6.12
2017-04-30T06:00:08.383Z,6.22
2017-04-30T06:01:08.970Z,6.33
2017-04-30T06:02:09.558Z,6.36
2017-04-30T06:03:10.129Z,6.60
2017-04-30T06:04:10.705Z,6.72
2017-04-30T06:05:11.275Z,6.62
2017-04-30T06:06:11.850Z,6.66
2017-04-30T06:07:12.421Z,6.66
2017-04-30T06:08:12.997Z,6.74
2017-04-30T06:09:13.570Z,6.78
2017-04-30T06:10:14.143Z,6.82
2017-04-30T06:11:14.717Z,6.84
2017-04-30T06:12:15.290Z,6.84
2017-04-30T06:13:15.864Z,7.03
2017-04-30T06:14:16.438Z,7.10
2017-04-30T06:15:17.013Z,7.02
2017-04-30T06:16:17.586Z,7.03
2017-04-30T06:17:18.162Z,7.17
2017-04-30T06:18:18.738Z,7.20
2017-04-30T06:19:19.316Z,7.29
2017-04-30T06:20:19.885Z,7.35
2017-04-30T06:21:20.460Z,7.51
2017-04-30T06:22:21.035Z,7.69
2017-04-30T06:23:21.609Z,7.72
2017-04-30T06:24:22.196Z,7.79
2017-04-30T06:25:22.769Z,7.72
2017-04-30T06:26:23.343Z,7.70
2017-04-30T06:27:23.918Z,7.57
2017-04-30T06:28:24.493Z,7.73
2017-04-30T06:29:25.068Z,7.90
2017-04-30T06:30:25.643Z,7.88
2017-04-30T06:31:26.219Z,7.93
2017-04-30T06:32:26.796Z,8.16
2017-04-30T06:33:27.368Z,8.06
2017-04-30T06:34:27.942Z,8.13
2017-04-30T06:35:28.516Z,8.27
2017-04-30T06:36:29.092Z,8.24
2017-04-30T06:37:29.665Z,8.28
2017-04-30T06:38:30.240Z,8.31
2017-04-30T06:39:30.826Z,8.27
2017-04-30T06:40:31.400Z,8.42
2017-04-30T06:41:31.974Z,8.56
2017-04-30T06:42:32.554Z,8.48
2017-04-30T06:43:33.124Z,8.55
2017-04-30T06:44:33.700Z,8.74
2017-04-30T06:45:34.275Z,8.91
2017-04-30T06:46:34.853Z,9.02
2017-04-30T06:47:35.426Z,9.25
2017-04-30T06:48:36.006Z,9.25
2017-04-30T06:49:36.589Z,9.41
2017-04-30T06:50:37.163Z,9.23
2017-04-30T06:51:37.738Z,9.47
2017-04-30T06:52:38.314Z,9.28
2017-04-30T06:53:38.888Z,9.19
2017-04-30T06:54:39.464Z,8.92
2017-04-30T06:55:40.040Z,9.04
2017-04-30T06:56:40.615Z,9.19
2017-04-30T06:57:41.194Z,9.59
2017-04-30T06:58:41.763Z,9.48
2017-04-30T06:59:42.339Z,9.47
2017-04-30T07:00:42.917Z,9.61
2017-04-30T07:01:43.499Z,9.39
2017-04-30T07:02:44.067Z,9.50
2017-04-30T07:03:44.644Z,9.86
2017-04-30T07:04:45.221Z,9.72
2017-04-30T07:05:45.799Z,9.79
2017-04-30T07:06:46.376Z,10.01
2017-04-30T07:07:46.951Z,9.80
2017-04-30T07:08:47.527Z,10.01
2017-04-30T07:09:48.103Z,9.97
2017-04-30T07:10:48.683Z,10.15
2017-04-30T07:11:49.256Z,9.99
2017-04-30T07:12:49.832Z,10.12
2017-04-30T07:13:50.408Z,10.22
2017-04-30T07:14:50.986Z,10.41
2017-04-30T07:15:51.564Z,10.22
2017-04-30T07:16:52.140Z,10.25
2017-04-30T07:17:52.717Z,10.19
2017-04-30T07:18:53.294Z,10.53
2017-04-30T07:19:53.872Z,10.54
2017-04-30T07:20:54.451Z,10.53
2017-04-30T07:21:55.027Z,10.64
2017-04-30T07:22:55.605Z,10.75
2017-04-30T07:23:56.193Z,10.69
2017-04-30T07:24:56.773Z,10.81
2017-04-30T07:25:57.351Z,11.10
2017-04-30T07:26:57.928Z,11.05
2017-04-30T07:27:58.506Z,11.14
2017-04-30T07:28:59.084Z,11.12
2017-04-30T07:29:59.664Z,11.19
2017-04-30T07:31:00.241Z,11.00
2017-04-30T07:32:00.818Z,11.17
2017-04-30T07:33:01.397Z,11.07
2017-04-30T07:34:01.973Z,11.19
2017-04-30T07:35:02.552Z,11.37
2017-04-30T07:36:03.129Z,11.62
2017-04-30T07:37:03.707Z,11.41
2017-04-30T07:38:04.288Z,11.40
2017-04-30T07:39:04.865Z,11.57
2017-04-30T07:40:05.442Z,11.59
2017-04-30T07:41:06.022Z,11.43
2017-04-30T07:42:06.599Z,11.48
2017-04-30T07:43:07.180Z,11.44
2017-04-30T07:44:07.758Z,11.69
2017-04-30T07:45:08.337Z,11.75
2017-04-30T07:46:08.917Z,11.78
2017-04-30T07:47:09.494Z,11.73
2017-04-30T07:48:10.073Z,11.95
2017-04-30T07:49:10.653Z,12.04
2017-04-30T07:50:11.230Z,12.18
2017-04-30T07:51:11.809Z,12.13
2017-04-30T07:52:12.388Z,12.22
2017-04-30T07:53:12.967Z,12.07
2017-04-30T07:54:13.547Z,12.17
2017-04-30T07:55:14.125Z,12.24
2017-04-30T07:56:14.707Z,12.40
2017-04-30T07:57:15.293Z,12.28
2017-04-30T07:58:15.874Z,12.40
2017-04-30T07:59:16.466Z,12.31
2017-04-30T08:00:17.050Z,12.42
2017-04-30T08:01:17.636Z,12.35
2017-04-30T08:02:18.218Z,12.29
2017-04-30T08:03:18.796Z,12.67
2017-04-30T08:04:19.377Z,12.49
2017-04-30T08:05:19.956Z,12.67
2017-04-30T08:06:20.535Z,12.55
2017-04-30T08:07:21.125Z,12.43
2017-04-30T08:08:21.705Z,12.67
2017-04-30T08:09:22.284Z,12.86
2017-04-30T08:10:22.863Z,12.97
2017-04-30T08:11:23.442Z,12.68
2017-04-30T08:12:24.027Z,12.62
2017-04-30T08:13:24.603Z,12.67
2017-04-30T08:14:25.182Z,12.75
2017-04-30T08:15:25.760Z,13.09
2017-04-30T08:16:26.340Z,13.15
2017-04-30T08:17:26.919Z,13.05
2017-04-30T08:18:27.499Z,12.83
2017-04-30T08:19:28.077Z,13.12
2017-04-30T08:20:28.669Z,13.16
2017-04-30T08:21:29.249Z,13.35
2017-04-30T08:22:29.841Z,13.28
2017-04-30T08:23:30.420Z,13.18
2017-04-30T08:24:31.013Z,13.19
2017-04-30T08:25:31.594Z,13.62
2017-04-30T08:26:32.176Z,13.52
2017-04-30T08:27:32.754Z,13.35
2017-04-30T08:28:33.332Z,13.49
2017-04-30T08:29:33.913Z,13.46
2017-04-30T08:30:34.494Z,13.49
2017-04-30T08:31:35.086Z,13.57
2017-04-30T08:32:35.667Z,13.54
2017-04-30T08:33:36.246Z,13.60
2017-04-30T08:34:36.830Z,13.79
2017-04-30T08:35:37.406Z,13.77
2017-04-30T08:36:37.987Z,13.60
2017-04-30T08:37:38.579Z,13.74
2017-04-30T08:38:39.162Z,13.62
2017-04-30T08:39:39.754Z,13.68
2017-04-30T08:40:40.333Z,13.53
2017-04-30T08:41:40.915Z,13.85
2017-04-30T08:42:41.492Z,13.75
2017-04-30T08:43:42.072Z,13.59
2017-04-30T08:44:42.654Z,13.67
2017-04-30T08:45:43.233Z,13.92
2017-04-30T08:46:43.813Z,13.89
2017-04-30T08:47:44.394Z,13.78
2017-04-30T08:48:44.974Z,13.57
2017-04-30T08:49:45.554Z,13.81
2017-04-30T08:50:46.136Z,13.81
2017-04-30T08:51:46.715Z,13.92
2017-04-30T08:52:47.297Z,14.03
2017-04-30T08:53:47.878Z,14.07
2017-04-30T08:54:48.457Z,14.11
2017-04-30T08:55:49.039Z,14.04
2017-04-30T08:56:49.629Z,13.97
2017-04-30T08:57:50.209Z,14.10
2017-04-30T08:58:50.790Z,14.12
2017-04-30T08:59:51.370Z,13.99
2017-04-30T09:00:51.949Z,14.28
2017-04-30T09:01:52.541Z,14.53
2017-04-30T09:02:53.133Z,14.51
2017-04-30T09:03:53.713Z,14.50
2017-04-30T09:04:54.293Z,14.29
2017-04-30T09:05:54.886Z,14.25
2017-04-30T09:06:55.467Z,14.28
2017-04-30T09:07:56.049Z,14.58
2017-04-30T09:08:56.630Z,14.54
2017-04-30T09:09:57.211Z,14.58
2017-04-30T09:10:57.792Z,14.54
2017-04-30T09:11:58.386Z,14.60
2017-04-30T09:12:58.980Z,14.43
2017-04-30T09:13:59.561Z,14.73
2017-04-30T09:15:00.143Z,14.86
2017-04-30T09:16:00.739Z,14.69
2017-04-30T09:17:01.321Z,15.00
2017-04-30T09:18:01.901Z,14.88
2017-04-30T09:19:02.481Z,15.04
2017-04-30T09:20:03.061Z,15.06
2017-04-30T09:21:03.643Z,15.19
2017-04-30T09:22:04.229Z,14.92
2017-04-30T09:23:04.820Z,15.11
2017-04-30T09:24:05.400Z,15.15
2017-04-30T09:25:05.980Z,15.37
2017-04-30T09:26:06.572Z,15.42
2017-04-30T09:27:07.152Z,15.57
2017-04-30T09:28:07.733Z,15.37
2017-04-30T09:29:08.316Z,15.42
2017-04-30T09:30:08.898Z,15.54
2017-04-30T09:31:09.478Z,15.51
2017-04-30T09:32:10.065Z,15.44
2017-04-30T09:33:10.659Z,15.47
2017-04-30T09:34:11.239Z,15.67
2017-04-30T09:35:11.821Z,15.70
2017-04-30T09:36:12.399Z,15.62
2017-04-30T09:37:12.983Z,15.64
2017-04-30T09:38:13.565Z,15.82
2017-04-30T09:39:14.146Z,15.79
2017-04-30T09:40:14.728Z,15.67
2017-04-30T09:41:15.310Z,15.79
2017-04-30T09:42:15.891Z,15.68
2017-04-30T09:43:16.479Z,16.05
2017-04-30T09:44:17.055Z,15.67
2017-04-30T09:45:17.640Z,15.90
2017-04-30T09:46:18.221Z,15.95
2017-04-30T09:47:18.803Z,15.88
2017-04-30T09:48:19.383Z,15.84
2017-04-30T09:49:19.978Z,15.62
2017-04-30T09:50:20.562Z,15.70
2017-04-30T09:51:21.145Z,16.21
2017-04-30T09:52:21.727Z,16.28
2017-04-30T09:53:22.309Z,16.28
2017-04-30T09:54:22.892Z,16.23
2017-04-30T09:55:23.477Z,16.05
2017-04-30T09:56:24.058Z,16.32
2017-04-30T09:57:24.639Z,16.10
2017-04-30T09:58:25.223Z,16.26
2017-04-30T09:59:25.804Z,16.42
2017-04-30T10:00:26.398Z,16.29
2017-04-30T10:01:26.984Z,16.21
2017-04-30T10:02:27.564Z,16.20
2017-04-30T10:03:28.147Z,16.31
2017-04-30T10:04:28.732Z,16.39
2017-04-30T10:05:29.314Z,16.31
2017-04-30T10:06:29.895Z,16.61
2017-04-30T10:07:30.480Z,16.75
2017-04-30T10:08:31.063Z,16.91
2017-04-30T10:09:31.647Z,17.02
2017-04-30T10:10:32.229Z,17.11
2017-04-30T10:11:32.811Z,17.02
2017-04-30T10:12:33.396Z,17.05
2017-04-30T10:13:33.978Z,17.05
2017-04-30T10:14:34.561Z,17.08
2017-04-30T10:15:35.146Z,17.16
2017-04-30T10:16:35.730Z,17.30
2017-04-30T10:17:36.333Z,17.27
2017-04-30T10:18:36.910Z,17.24
2017-04-30T10:19:37.494Z,17.22
2017-04-30T10:20:38.077Z,17.26
2017-04-30T10:21:38.658Z,17.14
2017-04-30T10:22:39.243Z,17.24
2017-04-30T10:23:39.826Z,17.29
2017-04-30T10:24:40.411Z,16.90
2017-04-30T10:25:40.995Z,17.23
2017-04-30T10:26:41.592Z,17.22
2017-04-30T10:27:42.176Z,17.36
2017-04-30T10:28:42.762Z,17.34
2017-04-30T10:29:43.347Z,17.41
2017-04-30T10:30:43.943Z,17.54
2017-04-30T10:31:44.539Z,17.31
2017-04-30T10:32:45.121Z,17.54
2017-04-30T10:33:45.704Z,17.38
2017-04-30T10:34:46.288Z,17.33
2017-04-30T10:35:46.871Z,17.38
2017-04-30T10:36:47.453Z,17.38
2017-04-30T10:37:48.037Z,17.56
2017-04-30T10:38:48.629Z,17.49
2017-04-30T10:39:49.225Z,17.89
2017-04-30T10:40:49.808Z,17.46
2017-04-30T10:41:50.393Z,17.65
2017-04-30T10:42:50.978Z,17.86
2017-04-30T10:43:51.575Z,18.01
2017-04-30T10:44:52.177Z,17.87
2017-04-30T10:45:52.754Z,17.87
2017-04-30T10:46:53.338Z,17.92
2017-04-30T10:47:53.923Z,18.07
2017-04-30T10:48:54.506Z,18.16
2017-04-30T10:49:55.091Z,17.90
2017-04-30T10:50:55.676Z,18.00
2017-04-30T10:51:56.260Z,18.13
2017-04-30T10:52:56.844Z,18.15
2017-04-30T10:53:57.428Z,18.10
2017-04-30T10:54:58.014Z,18.01
2017-04-30T10:55:58.599Z,18.01
2017-04-30T10:56:59.183Z,17.46
2017-04-30T10:57:59.767Z,17.59
2017-04-30T10:59:00.351Z,17.79
2017-04-30T11:00:00.933Z,17.57
2017-04-30T11:01:01.518Z,17.87
2017-04-30T11:02:02.103Z,17.87
2017-04-30T11:03:02.686Z,18.03
2017-04-30T11:04:03.274Z,18.01
2017-04-30T11:05:03.855Z,18.15
2017-04-30T11:06:04.438Z,18.16
2017-04-30T11:07:05.024Z,18.01
2017-04-30T11:08:05.607Z,17.95
2017-04-30T11:09:06.190Z,18.10
2017-04-30T11:10:06.777Z,18.43
2017-04-30T11:11:07.361Z,18.05
2017-04-30T11:12:07.944Z,18.05
2017-04-30T11:13:08.529Z,17.80
2017-04-30T11:14:09.112Z,18.07
2017-04-30T11:15:09.698Z,17.94
2017-04-30T11:16:10.282Z,18.29
2017-04-30T11:17:10.867Z,18.70
2017-04-30T11:18:11.452Z,18.63
2017-04-30T11:19:12.037Z,18.68
2017-04-30T11:20:12.622Z,18.50
2017-04-30T11:21:13.207Z,18.60
2017-04-30T11:22:13.792Z,18.60
2017-04-30T11:23:14.377Z,18.55
2017-04-30T11:24:14.961Z,18.43
2017-04-30T11:25:15.547Z,18.45
2017-04-30T11:26:16.130Z,18.25
2017-04-30T11:27:16.718Z,18.43
2017-04-30T11:28:17.302Z,18.38
2017-04-30T11:29:17.887Z,17.95
2017-04-30T11:30:18.471Z,17.95
2017-04-30T11:31:19.055Z,18.10
2017-04-30T11:32:19.652Z,18.33
2017-04-30T11:33:20.237Z,18.11
2017-04-30T11:34:20.851Z,18.07
2017-04-30T11:35:21.437Z,18.01
2017-04-30T11:36:22.022Z,18.35
2017-04-30T11:37:22.619Z,18.25
2017-04-30T11:38:23.218Z,18.29
2017-04-30T11:39:23.802Z,18.41
2017-04-30T11:40:24.397Z,18.31
2017-04-30T11:41:24.981Z,18.56
2017-04-30T11:42:25.565Z,18.34
2017-04-30T11:43:26.149Z,18.44
2017-04-30T11:44:26.732Z,17.59
2017-04-30T11:45:27.331Z,18.13
2017-04-30T11:46:27.914Z,18.45
2017-04-30T11:47:28.512Z,18.47
2017-04-30T11:48:29.096Z,18.49
2017-04-30T11:49:29.680Z,18.50
2017-04-30T11:50:30.265Z,18.62
2017-04-30T11:51:30.848Z,18.53
2017-04-30T11:52:31.434Z,18.31
2017-04-30T11:53:32.032Z,18.43
2017-04-30T11:54:32.630Z,18.70
2017-04-30T11:55:33.215Z,18.59
2017-04-30T11:56:33.799Z,18.83
2017-04-30T11:57:34.382Z,18.99
2017-04-30T11:58:34.968Z,18.71
2017-04-30T11:59:35.552Z,18.73
2017-04-30T12:00:36.136Z,18.89
2017-04-30T12:01:36.721Z,18.93
2017-04-30T12:02:37.304Z,18.86
2017-04-30T12:03:37.902Z,18.62
2017-04-30T12:04:38.488Z,18.66
2017-04-30T12:05:39.071Z,18.80
2017-04-30T12:06:39.656Z,18.68
2017-04-30T12:07:40.241Z,18.86
2017-04-30T12:08:40.826Z,18.93
2017-04-30T12:09:41.410Z,18.89
2017-04-30T12:10:41.993Z,18.74
2017-04-30T12:11:42.577Z,18.73
2017-04-30T12:12:43.163Z,18.45
2017-04-30T12:13:43.747Z,18.53
2017-04-30T12:14:44.334Z,18.74
2017-04-30T12:15:44.919Z,18.75
2017-04-30T12:16:45.503Z,18.59
2017-04-30T12:17:46.086Z,18.59
2017-04-30T12:18:46.673Z,18.74
2017-04-30T12:19:47.256Z,18.78
2017-04-30T12:20:47.841Z,18.74
2017-04-30T12:21:48.428Z,18.92
2017-04-30T12:22:49.025Z,18.93
2017-04-30T12:23:49.622Z,18.95
2017-04-30T12:24:50.207Z,19.00
2017-04-30T12:25:50.802Z,18.89
2017-04-30T12:26:51.389Z,18.77
2017-04-30T12:27:51.974Z,18.38
2017-04-30T12:28:52.560Z,18.89
2017-04-30T12:29:53.145Z,18.77
2017-04-30T12:30:53.729Z,18.70
2017-04-30T12:31:54.313Z,18.78
2017-04-30T12:32:54.897Z,18.90
2017-04-30T12:33:55.482Z,18.71
2017-04-30T12:34:56.069Z,18.78
2017-04-30T12:35:56.656Z,19.12
2017-04-30T12:36:57.239Z,18.98
2017-04-30T12:37:57.824Z,18.86
2017-04-30T12:38:58.409Z,18.58
2017-04-30T12:39:58.994Z,18.78
2017-04-30T12:40:59.580Z,18.77
2017-04-30T12:42:00.163Z,19.09
2017-04-30T12:43:00.747Z,18.78
2017-04-30T12:44:01.331Z,18.66
2017-04-30T12:45:01.916Z,18.37
2017-04-30T12:46:02.501Z,18.44
2017-04-30T12:47:03.083Z,18.50
2017-04-30T12:48:03.667Z,18.55
2017-04-30T12:49:04.254Z,18.66
2017-04-30T12:50:04.838Z,18.65
2017-04-30T12:51:05.423Z,18.66
2017-04-30T12:52:06.010Z,18.78
2017-04-30T12:53:06.594Z,18.99
2017-04-30T12:54:07.178Z,19.12
2017-04-30T12:55:07.762Z,19.11
2017-04-30T12:56:08.345Z,19.04
2017-04-30T12:57:08.929Z,19.18
2017-04-30T12:58:09.514Z,19.48
2017-04-30T12:59:10.101Z,19.45
2017-04-30T13:00:10.686Z,19.21
2017-04-30T13:01:11.270Z,19.27
2017-04-30T13:02:11.855Z,19.26
2017-04-30T13:03:12.441Z,19.11
2017-04-30T13:04:13.025Z,18.88
2017-04-30T13:05:13.610Z,19.26
2017-04-30T13:06:14.197Z,18.98
2017-04-30T13:07:14.781Z,19.33
2017-04-30T13:08:15.364Z,19.52
2017-04-30T13:09:15.951Z,19.62
2017-04-30T13:10:16.537Z,19.48
2017-04-30T13:11:17.121Z,19.59
2017-04-30T13:12:17.710Z,19.91
2017-04-30T13:13:18.308Z,19.70
2017-04-30T13:14:18.896Z,19.59